createdAt,value
2023-04-14T00:02:24.185Z,24.52
2023-04-14T00:06:27.279Z,27.40
2023-04-14T00:10:29.413Z,27.83
2023-04-14T00:14:31.413Z,30.52
2023-04-14T00:18:33.460Z,28.73
2023-04-14T00:22:35.486Z,21.25
2023-04-14T00:26:37.578Z,34.95
2023-04-14T00:30:39.555Z,28.98
2023-04-14T00:34:41.574Z,26.05
2023-04-14T00:38:43.586Z,25.02
2023-04-14T00:42:47.039Z,28.83
2023-04-14T00:46:49.501Z,32.13
2023-04-14T00:50:51.784Z,44.17
2023-04-14T00:54:53.857Z,34.92
2023-04-14T00:58:56.320Z,47.83
2023-04-14T01:03:00.113Z,38.80
2023-04-14T01:07:02.405Z,35.65
2023-04-14T01:11:16.977Z,39.08
2023-04-14T01:15:39.079Z,32.95
2023-04-14T01:19:42.236Z,33.33
2023-04-14T01:24:09.354Z,39.85
2023-04-14T01:28:49.738Z,33.33
2023-04-14T01:32:56.529Z,32.90
2023-04-14T01:37:06.571Z,33.15
2023-04-14T01:41:10.668Z,27.27
2023-04-14T01:45:23.525Z,35.17
2023-04-14T01:49:27.962Z,31.08
2023-04-14T01:53:33.976Z,30.55
2023-04-14T01:57:38.718Z,34.55
2023-04-14T02:01:42.837Z,34.80
2023-04-14T02:05:47.321Z,35.40
2023-04-14T02:09:50.291Z,34.30
2023-04-14T02:13:55.070Z,36.90
2023-04-14T02:17:58.630Z,37.65
2023-04-14T02:22:01.165Z,34.10
2023-04-14T02:26:12.981Z,30.40
2023-04-14T02:30:21.595Z,29.10
2023-04-14T02:34:28.217Z,38.72
2023-04-14T02:38:45.872Z,36.47
2023-04-14T02:42:56.240Z,37.53
2023-04-14T02:47:10.100Z,42.13
2023-04-14T02:51:18.232Z,38.58
2023-04-14T02:55:22.763Z,46.38
2023-04-14T02:59:27.389Z,51.83
2023-04-14T03:03:37.811Z,47.22
2023-04-14T03:07:44.201Z,48.70
2023-04-14T03:11:51.173Z,47.45
2023-04-14T03:15:56.522Z,39.17
2023-04-14T03:20:01.740Z,44.33
2023-04-14T03:24:07.077Z,41.58
2023-04-14T03:28:15.992Z,43.42
2023-04-14T03:32:23.344Z,48.17
2023-04-14T03:36:27.145Z,43.50
2023-04-14T03:40:34.962Z,45.25
2023-04-14T03:44:39.844Z,56.88
2023-04-14T03:48:45.710Z,52.83
2023-04-14T03:52:51.029Z,59.65
2023-04-14T03:56:56.857Z,57.30
2023-04-14T04:01:02.534Z,79.25
2023-04-14T04:05:04.975Z,72.25
2023-04-14T04:09:09.227Z,81.85
2023-04-14T04:13:17.565Z,81.97
2023-04-14T04:17:24.464Z,91.95
2023-04-14T04:21:31.740Z,78.32
2023-04-14T04:25:37.388Z,84.82
2023-04-14T04:29:52.734Z,90.40
2023-04-14T04:33:57.208Z,81.18
2023-04-14T04:38:01.031Z,70.32
2023-04-14T04:42:05.517Z,72.88
2023-04-14T04:46:21.752Z,70.22
2023-04-14T04:50:24.346Z,80.90
2023-04-14T04:54:28.003Z,63.33
2023-04-14T04:58:30.003Z,59.80
2023-04-14T05:02:32.134Z,58.60
2023-04-14T05:06:37.589Z,56.10
2023-04-14T05:10:39.626Z,66.53
2023-04-14T05:14:41.568Z,53.25
2023-04-14T05:18:43.731Z,54.50
2023-04-14T05:22:45.916Z,45.35
2023-04-14T05:27:09.567Z,52.17
2023-04-14T05:31:10.580Z,44.78
2023-04-14T05:35:13.287Z,39.42
2023-04-14T05:39:15.234Z,38.88
2023-04-14T05:43:17.341Z,34.95
2023-04-14T05:47:19.113Z,29.35
2023-04-14T05:51:21.535Z,36.65
2023-04-14T05:55:23.495Z,33.20
2023-04-14T05:59:25.712Z,25.58
2023-04-14T06:03:28.093Z,30.98
2023-04-14T06:07:30.565Z,29.77
2023-04-14T06:11:32.492Z,28.08
2023-04-14T06:15:34.117Z,27.63
2023-04-14T06:19:36.128Z,29.48
2023-04-14T06:23:38.171Z,23.50
2023-04-14T06:27:40.184Z,26.40
2023-04-14T06:31:42.333Z,23.10
2023-04-14T06:35:45.113Z,22.95
2023-04-14T06:39:47.273Z,20.10
2023-04-14T06:43:49.369Z,17.95
2023-04-14T06:47:51.773Z,22.88
2023-04-14T06:51:54.043Z,18.90
2023-04-14T06:55:59.752Z,15.88
2023-04-14T07:00:02.057Z,16.45
2023-04-14T07:04:07.506Z,15.75
2023-04-14T07:08:10.089Z,15.68
2023-04-14T07:12:14.093Z,17.25
2023-04-14T07:16:16.354Z,18.15
2023-04-14T07:20:18.635Z,12.63
2023-04-14T07:24:20.737Z,8.55
2023-04-14T07:28:23.733Z,12.32
2023-04-14T07:32:25.746Z,13.30
2023-04-14T07:36:28.014Z,11.73
2023-04-14T07:40:30.050Z,8.35
2023-04-14T07:44:33.233Z,10.57
2023-04-14T07:48:36.817Z,10.68
2023-04-14T07:52:38.977Z,10.73
2023-04-14T07:56:41.047Z,12.02
2023-04-14T08:00:43.609Z,9.73
2023-04-14T08:04:45.592Z,10.60
2023-04-14T08:08:47.987Z,7.38
2023-04-14T08:12:50.724Z,12.77
2023-04-14T08:16:53.411Z,8.98
2023-04-14T08:20:56.150Z,9.63
2023-04-14T08:24:58.333Z,10.20
2023-04-14T08:29:00.764Z,9.02
2023-04-14T08:33:02.950Z,12.02
2023-04-14T08:37:05.135Z,9.75
2023-04-14T08:41:09.274Z,8.35
2023-04-14T08:45:12.440Z,7.38
2023-04-14T08:49:25.978Z,8.02
2023-04-14T08:53:31.242Z,8.73
2023-04-14T08:57:33.756Z,10.95
2023-04-14T09:01:37.723Z,8.02
2023-04-14T09:05:41.592Z,13.32
2023-04-14T09:09:44.142Z,10.23
2023-04-14T09:13:49.550Z,9.77
2023-04-14T09:17:51.619Z,9.20
2023-04-14T09:21:55.744Z,8.48
2023-04-14T09:25:59.358Z,10.07
2023-04-14T09:30:01.506Z,8.85
2023-04-14T09:34:04.107Z,12.77
2023-04-14T09:38:07.298Z,8.60
2023-04-14T09:42:09.314Z,15.18
2023-04-14T09:46:11.896Z,14.70
2023-04-14T09:50:14.169Z,12.82
2023-04-14T09:54:26.495Z,11.43
2023-04-14T09:58:37.206Z,9.70
2023-04-14T10:02:58.135Z,10.32
2023-04-14T10:07:01.420Z,10.85
2023-04-14T10:11:25.965Z,10.23
2023-04-14T10:15:28.335Z,10.15
2023-04-14T10:19:30.936Z,8.27
2023-04-14T10:23:35.992Z,16.63
2023-04-14T10:27:38.591Z,8.27
2023-04-14T10:31:45.306Z,9.40
2023-04-14T10:35:49.634Z,8.02
2023-04-14T10:39:56.302Z,9.38
2023-04-14T10:43:58.366Z,7.93
2023-04-14T10:48:00.784Z,10.57
2023-04-14T10:52:13.506Z,9.50
2023-04-14T10:56:16.165Z,8.10
2023-04-14T11:00:27.714Z,10.45
2023-04-14T11:04:29.850Z,8.50
2023-04-14T11:08:35.800Z,8.60
2023-04-14T11:12:43.752Z,6.50
2023-04-14T11:16:54.220Z,11.55
2023-04-14T11:21:15.865Z,7.80
2023-04-14T11:25:23.007Z,7.18
2023-04-14T11:29:26.147Z,6.57
2023-04-14T11:33:32.609Z,7.18
2023-04-14T11:37:36.180Z,8.02
2023-04-14T11:41:38.959Z,7.68
2023-04-14T11:45:45.306Z,6.28
2023-04-14T11:49:47.704Z,3.80
2023-04-14T11:53:49.690Z,5.65
2023-04-14T11:57:51.878Z,4.63
2023-04-14T12:01:53.941Z,7.82
2023-04-14T12:06:01.684Z,4.50
2023-04-14T12:10:05.570Z,5.80
2023-04-14T12:14:07.826Z,3.47
2023-04-14T12:18:15.846Z,3.47
2023-04-14T12:22:29.489Z,5.37
2023-04-14T12:26:32.628Z,4.25
2023-04-14T12:30:36.010Z,4.05
2023-04-14T12:34:38.572Z,6.05
2023-04-14T12:38:41.529Z,5.32
2023-04-14T12:42:51.987Z,3.65
2023-04-14T12:46:55.291Z,4.47
2023-04-14T12:51:08.272Z,5.13
2023-04-14T12:55:21.097Z,4.85
2023-04-14T12:59:23.101Z,9.93
2023-04-14T13:03:25.335Z,7.88
2023-04-14T13:07:27.485Z,6.30
2023-04-14T13:11:31.241Z,7.05
2023-04-14T13:16:13.082Z,6.97
2023-04-14T13:19:55.425Z,6.80
2023-04-14T13:23:57.454Z,4.35
2023-04-14T13:27:59.529Z,7.20
2023-04-14T13:32:01.698Z,7.28
2023-04-14T13:36:04.102Z,9.80
2023-04-14T13:40:06.909Z,5.47
2023-04-14T13:44:09.175Z,4.95
2023-04-14T13:48:11.178Z,5.85
2023-04-14T13:52:13.281Z,6.28
2023-04-14T13:56:15.373Z,7.00
2023-04-14T14:00:17.917Z,4.40
2023-04-14T14:04:19.928Z,11.35
2023-04-14T14:08:22.012Z,5.28
2023-04-14T14:12:24.087Z,4.82
2023-04-14T14:20:31.350Z,4.05
2023-04-14T14:24:33.499Z,11.35
2023-04-14T14:28:35.451Z,5.95
2023-04-14T14:32:37.569Z,5.18
2023-04-14T14:36:39.711Z,6.95
2023-04-14T14:40:41.766Z,6.90
2023-04-14T14:44:43.715Z,8.07
2023-04-14T14:48:46.076Z,8.48
2023-04-14T14:52:48.054Z,10.63
2023-04-14T14:56:50.047Z,6.28
2023-04-14T15:00:52.792Z,6.63
2023-04-14T15:04:54.853Z,8.63
2023-04-14T15:08:57.172Z,5.40
2023-04-14T15:12:59.458Z,10.48
2023-04-14T15:17:02.489Z,5.75
2023-04-14T15:21:04.845Z,8.25
2023-04-14T15:25:09.265Z,8.57
2023-04-14T15:29:11.532Z,8.68
2023-04-14T15:33:13.646Z,9.35
2023-04-14T15:37:15.728Z,7.45
2023-04-14T15:41:17.763Z,9.65
2023-04-14T15:45:19.880Z,10.07
2023-04-14T15:49:21.907Z,6.93
2023-04-14T15:53:23.871Z,7.65
2023-04-14T15:57:26.077Z,6.82
2023-04-14T16:01:28.251Z,7.03
2023-04-14T16:05:30.404Z,8.48
2023-04-14T16:09:32.604Z,9.38
2023-04-14T16:13:34.647Z,9.90
2023-04-14T16:17:36.682Z,6.45
2023-04-14T16:21:38.768Z,8.77
2023-04-14T16:25:41.642Z,7.05
2023-04-14T16:29:43.585Z,11.43
2023-04-14T16:33:45.806Z,7.32
2023-04-14T16:37:47.928Z,10.50
2023-04-14T16:41:50.013Z,12.05
2023-04-14T16:45:52.152Z,10.48
2023-04-14T16:49:54.397Z,8.18
2023-04-14T16:53:56.428Z,10.75
2023-04-14T16:57:58.393Z,18.42
2023-04-14T17:02:01.171Z,18.13
2023-04-14T17:06:03.845Z,12.15
2023-04-14T17:10:06.478Z,7.50
2023-04-14T17:14:08.898Z,9.50
2023-04-14T17:18:11.846Z,11.95
2023-04-14T17:22:15.224Z,16.48
2023-04-14T17:26:17.349Z,13.00
2023-04-14T17:30:20.235Z,16.70
2023-04-14T17:34:22.837Z,11.75
2023-04-14T17:38:25.087Z,14.38
2023-04-14T17:42:27.745Z,11.15
2023-04-14T17:46:33.858Z,12.07
2023-04-14T17:50:35.965Z,12.00
2023-04-14T17:54:38.340Z,20.92
2023-04-14T17:58:40.407Z,13.40
2023-04-14T18:02:42.602Z,15.43
2023-04-14T18:06:44.770Z,14.73
2023-04-14T18:10:46.379Z,12.68
2023-04-14T18:14:51.699Z,21.92
2023-04-14T18:18:54.507Z,13.85
2023-04-14T18:23:01.951Z,18.33
2023-04-14T18:31:13.755Z,14.20
2023-04-14T18:35:16.051Z,16.30
2023-04-14T18:39:18.840Z,18.17
2023-04-14T18:43:21.306Z,16.55
2023-04-14T18:47:23.827Z,13.88
2023-04-14T18:51:26.014Z,23.73
2023-04-14T18:55:28.463Z,19.70
2023-04-14T18:59:46.417Z,15.82
2023-04-14T19:03:48.544Z,15.98
2023-04-14T19:07:51.026Z,13.18
2023-04-14T19:11:53.217Z,14.07
2023-04-14T19:16:14.717Z,15.95
2023-04-14T19:20:16.836Z,16.85
2023-04-14T19:24:19.997Z,15.05
2023-04-14T19:28:22.190Z,16.65
2023-04-14T19:32:24.395Z,15.32
2023-04-14T19:36:26.691Z,18.05
2023-04-14T19:40:29.079Z,15.05
2023-04-14T19:44:31.255Z,16.60
2023-04-14T19:48:34.014Z,14.45
2023-04-14T19:52:36.582Z,15.90
2023-04-14T19:56:38.974Z,13.88
2023-04-14T20:00:41.077Z,16.95
2023-04-14T20:04:44.841Z,15.73
2023-04-14T20:08:47.293Z,18.13
2023-04-14T20:12:49.760Z,15.65
2023-04-14T20:16:51.815Z,21.75
2023-04-14T20:20:54.822Z,14.65
2023-04-14T20:24:56.865Z,18.58
2023-04-14T20:28:59.252Z,21.20
2023-04-14T20:33:05.826Z,17.08
2023-04-14T20:37:08.151Z,20.00
2023-04-14T20:41:10.159Z,14.23
2023-04-14T20:45:12.423Z,15.57
2023-04-14T20:49:14.437Z,16.17
2023-04-14T20:53:17.838Z,17.17
2023-04-14T20:57:20.105Z,13.90
2023-04-14T21:01:23.913Z,15.35
2023-04-14T21:05:26.314Z,13.85
2023-04-14T21:09:28.434Z,15.52
2023-04-14T21:15:26.702Z,17.45
2023-04-14T21:17:52.798Z,17.02
2023-04-14T21:21:54.889Z,18.15
2023-04-14T21:25:57.482Z,20.42
2023-04-14T21:29:59.565Z,18.63
2023-04-14T21:34:01.724Z,17.20
2023-04-14T21:38:03.777Z,20.42
2023-04-14T21:42:05.861Z,15.02
2023-04-14T21:46:08.113Z,20.95
2023-04-14T21:50:10.548Z,16.98
2023-04-14T21:54:12.741Z,16.85
2023-04-14T21:58:14.982Z,17.23
2023-04-14T22:02:17.130Z,17.92
2023-04-14T22:06:21.046Z,17.83
2023-04-14T22:10:23.503Z,15.77
2023-04-14T22:14:25.751Z,17.83
2023-04-14T22:18:28.694Z,20.88
2023-04-14T22:22:30.799Z,16.75
2023-04-14T22:26:32.790Z,20.30
2023-04-14T22:30:35.232Z,15.77
2023-04-14T22:34:37.413Z,20.13
2023-04-14T22:38:39.575Z,14.75
2023-04-14T22:42:41.836Z,18.20
2023-04-14T22:46:43.922Z,16.30
2023-04-14T22:50:46.065Z,18.27
2023-04-14T22:54:48.789Z,15.80
2023-04-14T22:58:50.918Z,15.48
2023-04-14T23:02:53.715Z,15.23
2023-04-14T23:06:55.950Z,17.20
2023-04-14T23:10:58.400Z,17.88
2023-04-14T23:15:00.963Z,16.83
2023-04-14T23:19:03.208Z,16.67
2023-04-14T23:23:05.933Z,19.20
2023-04-14T23:27:08.264Z,19.27
2023-04-14T23:31:10.850Z,14.85
2023-04-14T23:35:13.231Z,17.90
2023-04-14T23:39:15.510Z,14.32
2023-04-14T23:43:17.598Z,16.73
2023-04-14T23:47:19.744Z,17.75
2023-04-14T23:51:22.424Z,16.13
2023-04-14T23:55:25.100Z,16.85
2023-04-14T23:59:27.120Z,19.35
